createdAt,value
2023-05-13T00:01:27.704Z,1.55
2023-05-13T00:06:33.389Z,1.85
2023-05-13T00:11:36.905Z,1.63
2023-05-13T00:16:40.564Z,1.70
2023-05-13T00:21:45.340Z,1.60
2023-05-13T00:26:48.772Z,1.90
2023-05-13T00:31:54.034Z,1.95
2023-05-13T00:37:01.359Z,1.88
2023-05-13T00:42:12.258Z,2.10
2023-05-13T00:47:17.057Z,1.80
2023-05-13T00:52:23.849Z,1.90
2023-05-13T00:57:30.692Z,1.87
2023-05-13T01:02:45.729Z,2.33
2023-05-13T01:08:05.218Z,2.20
2023-05-13T01:13:13.805Z,2.35
2023-05-13T01:18:39.277Z,2.20
2023-05-13T01:23:48.836Z,2.03
2023-05-13T01:28:52.589Z,2.03
2023-05-13T01:34:01.873Z,2.08
2023-05-13T01:39:11.851Z,2.00
2023-05-13T01:44:45.675Z,1.80
2023-05-13T01:49:55.823Z,1.80
2023-05-13T02:00:17.462Z,1.98
2023-05-13T02:05:37.003Z,2.45
2023-05-13T02:11:11.816Z,2.08
2023-05-13T02:16:23.835Z,2.05
2023-05-13T02:21:28.427Z,2.03
2023-05-13T02:26:44.726Z,2.30
2023-05-13T02:32:14.310Z,2.00
2023-05-13T02:37:26.900Z,2.20
2023-05-13T02:43:27.356Z,2.17
2023-05-13T02:54:51.602Z,1.90
2023-05-13T03:00:30.286Z,2.10
2023-05-13T03:06:15.566Z,2.25
2023-05-13T03:17:39.408Z,2.03
2023-05-13T03:23:17.762Z,2.13
2023-05-13T03:34:55.368Z,2.17
2023-05-13T03:40:41.834Z,1.95
2023-05-13T03:46:31.349Z,2.67
2023-05-13T03:58:00.966Z,2.95
2023-05-13T04:03:04.854Z,2.63
2023-05-13T04:08:12.406Z,2.53
2023-05-13T04:13:17.440Z,2.80
2023-05-13T04:18:21.192Z,2.15
2023-05-13T04:23:26.100Z,2.47
2023-05-13T04:28:29.653Z,2.65
2023-05-13T04:33:34.373Z,2.70
2023-05-13T04:38:39.842Z,2.20
2023-05-13T04:43:43.773Z,2.60
2023-05-13T04:48:48.487Z,3.00
2023-05-13T04:53:54.502Z,2.67
2023-05-13T04:58:58.533Z,2.88
2023-05-13T05:04:02.661Z,2.33
2023-05-13T05:09:08.559Z,2.65
2023-05-13T05:14:13.017Z,2.60
2023-05-13T05:19:24.259Z,2.88
2023-05-13T05:24:31.823Z,2.75
2023-05-13T05:29:35.878Z,2.70
2023-05-13T05:34:41.176Z,3.05
2023-05-13T05:39:48.503Z,2.58
2023-05-13T05:44:52.190Z,2.90
2023-05-13T05:49:56.007Z,2.95
2023-05-13T05:55:01.314Z,2.80
2023-05-13T06:00:06.001Z,3.42
2023-05-13T06:05:18.601Z,3.25
2023-05-13T06:10:25.117Z,2.88
2023-05-13T06:15:29.796Z,2.70
2023-05-13T06:20:34.058Z,2.63
2023-05-13T06:25:39.071Z,2.83
2023-05-13T06:30:46.127Z,2.72
2023-05-13T06:35:49.970Z,2.88
2023-05-13T06:40:57.656Z,2.40
2023-05-13T06:46:08.505Z,2.53
2023-05-13T06:51:13.290Z,2.30
2023-05-13T06:56:18.624Z,2.72
2023-05-13T07:01:22.433Z,2.75
2023-05-13T07:06:26.131Z,2.95
2023-05-13T07:11:31.664Z,2.65
2023-05-13T07:16:35.390Z,3.22
2023-05-13T07:21:39.282Z,2.35
2023-05-13T07:26:44.277Z,2.90
2023-05-13T07:31:49.842Z,5.20
2023-05-13T07:36:55.361Z,13.65
2023-05-13T07:42:00.891Z,11.50
2023-05-13T07:47:05.278Z,10.05
2023-05-13T07:52:13.833Z,6.72
2023-05-13T07:57:21.514Z,3.20
2023-05-13T08:02:28.117Z,3.15
2023-05-13T08:07:31.860Z,2.65
2023-05-13T08:12:42.112Z,2.60
2023-05-13T08:17:53.781Z,2.22
2023-05-13T08:22:58.576Z,3.23
2023-05-13T08:28:04.264Z,2.50
2023-05-13T08:33:13.948Z,2.33
2023-05-13T08:38:20.049Z,2.60
2023-05-13T08:43:34.194Z,2.80
2023-05-13T08:48:47.177Z,2.80
2023-05-13T08:58:57.508Z,2.40
2023-05-13T09:04:08.883Z,2.83
2023-05-13T09:09:12.759Z,3.33
2023-05-13T09:14:30.165Z,2.42
2023-05-13T09:19:34.056Z,2.85
2023-05-13T09:24:41.627Z,2.78
2023-05-13T09:29:52.788Z,2.70
2023-05-13T09:35:09.614Z,2.83
2023-05-13T09:40:15.102Z,2.78
2023-05-13T09:45:21.886Z,2.95
2023-05-13T09:50:26.489Z,2.78
2023-05-13T09:55:30.358Z,2.50
2023-05-13T10:00:37.484Z,2.92
2023-05-13T10:05:43.415Z,2.65
2023-05-13T10:10:49.604Z,2.95
2023-05-13T10:15:57.084Z,2.92
2023-05-13T10:21:01.228Z,2.50
2023-05-13T10:26:07.899Z,3.40
2023-05-13T10:31:12.771Z,2.22
2023-05-13T10:36:55.215Z,2.40
2023-05-13T10:42:29.810Z,2.70
2023-05-13T10:47:39.209Z,2.60
2023-05-13T10:52:44.399Z,2.60
2023-05-13T10:58:13.976Z,3.55
2023-05-13T11:03:30.335Z,3.13
2023-05-13T11:09:01.195Z,2.80
2023-05-13T11:14:10.079Z,2.53
2023-05-13T11:19:23.107Z,2.58
2023-05-13T11:24:28.045Z,2.40
2023-05-13T11:29:33.366Z,2.42
2023-05-13T11:34:39.514Z,3.10
2023-05-13T11:39:43.193Z,2.47
2023-05-13T11:44:48.177Z,2.03
2023-05-13T11:49:53.452Z,2.10
2023-05-13T11:54:59.190Z,1.92
2023-05-13T12:00:05.693Z,2.55
2023-05-13T12:05:13.701Z,3.40
2023-05-13T12:10:18.171Z,2.15
2023-05-13T12:15:23.666Z,4.63
2023-05-13T12:20:28.752Z,2.15
2023-05-13T12:25:44.245Z,1.80
2023-05-13T12:30:53.517Z,4.40
2023-05-13T12:36:20.182Z,1.73
2023-05-13T12:41:25.877Z,2.10
2023-05-13T12:46:30.558Z,1.77
2023-05-13T12:51:35.897Z,2.13
2023-05-13T12:56:40.321Z,1.67
2023-05-13T13:01:44.128Z,1.88
2023-05-13T13:06:49.197Z,1.60
2023-05-13T13:11:52.858Z,1.75
2023-05-13T13:16:56.509Z,2.15
2023-05-13T13:22:01.698Z,1.88
2023-05-13T13:27:05.596Z,2.15
2023-05-13T13:32:09.630Z,2.25
2023-05-13T13:37:16.132Z,2.53
2023-05-13T13:42:19.831Z,2.10
2023-05-13T13:47:23.560Z,2.63
2023-05-13T13:52:29.085Z,2.55
2023-05-13T13:57:32.731Z,2.78
2023-05-13T14:02:36.503Z,1.98
2023-05-13T14:07:41.761Z,2.33
2023-05-13T14:12:45.602Z,2.33
2023-05-13T14:17:49.308Z,2.28
2023-05-13T14:22:54.478Z,2.10
2023-05-13T14:27:58.109Z,2.17
2023-05-13T14:33:01.767Z,2.40
2023-05-13T14:38:06.808Z,2.40
2023-05-13T14:43:10.557Z,2.28
2023-05-13T14:48:14.688Z,2.65
2023-05-13T14:53:19.704Z,2.63
2023-05-13T14:58:23.370Z,2.88
2023-05-13T15:03:27.006Z,2.80
2023-05-13T15:08:32.147Z,2.50
2023-05-13T15:13:36.961Z,2.55
2023-05-13T15:18:41.071Z,2.78
2023-05-13T15:23:46.027Z,3.05
2023-05-13T15:28:49.542Z,2.50
2023-05-13T15:33:53.128Z,2.90
2023-05-13T15:38:58.113Z,2.55
2023-05-13T15:44:01.809Z,3.05
2023-05-13T15:49:05.424Z,2.97
2023-05-13T15:54:10.263Z,2.30
2023-05-13T15:59:13.990Z,2.75
2023-05-13T16:04:17.903Z,2.90
2023-05-13T16:09:22.954Z,2.40
2023-05-13T16:14:26.614Z,2.97
2023-05-13T16:19:30.231Z,3.22
2023-05-13T16:24:35.089Z,3.10
2023-05-13T16:29:38.627Z,2.92
2023-05-13T16:34:42.660Z,3.45
2023-05-13T16:39:47.733Z,3.58
2023-05-13T16:44:51.658Z,2.90
2023-05-13T16:49:56.265Z,2.85
2023-05-13T16:55:01.227Z,2.35
2023-05-13T17:00:05.545Z,2.50
2023-05-13T17:05:09.517Z,2.80
2023-05-13T17:10:14.655Z,3.30
2023-05-13T17:15:18.537Z,2.50
2023-05-13T17:20:22.592Z,2.75
2023-05-13T17:25:28.037Z,2.15
2023-05-13T17:30:32.033Z,2.60
2023-05-13T17:35:35.897Z,2.53
2023-05-13T17:40:41.071Z,2.78
2023-05-13T17:45:45.243Z,2.55
2023-05-13T17:50:49.011Z,2.65
2023-05-13T17:55:54.601Z,2.47
2023-05-13T18:00:58.275Z,2.58
2023-05-13T18:06:02.027Z,2.47
2023-05-13T18:11:07.403Z,2.55
2023-05-13T18:16:11.748Z,2.55
2023-05-13T18:21:15.430Z,2.80
2023-05-13T18:26:20.865Z,2.55
2023-05-13T18:31:24.492Z,3.40
2023-05-13T18:36:28.368Z,2.53
2023-05-13T18:41:33.444Z,3.17
2023-05-13T18:46:37.108Z,3.15
2023-05-13T18:51:40.699Z,4.13
2023-05-13T18:56:45.859Z,2.90
2023-05-13T19:01:49.983Z,2.88
2023-05-13T19:06:53.750Z,3.00
2023-05-13T19:11:58.767Z,2.95
2023-05-13T19:17:02.504Z,3.10
2023-05-13T19:22:06.609Z,2.88
2023-05-13T19:27:11.697Z,3.22
2023-05-13T19:32:15.396Z,3.63
2023-05-13T19:37:19.078Z,4.00
2023-05-13T19:42:24.327Z,3.95
2023-05-13T19:47:30.500Z,3.63
2023-05-13T19:52:34.319Z,3.83
2023-05-13T19:57:42.414Z,3.88
2023-05-13T20:02:46.443Z,5.95
2023-05-13T20:07:50.172Z,5.63
2023-05-13T20:12:55.264Z,5.65
2023-05-13T20:17:59.152Z,6.00
2023-05-13T20:23:02.772Z,5.95
2023-05-13T20:28:07.962Z,5.65
2023-05-13T20:33:11.685Z,5.35
2023-05-13T20:38:15.198Z,4.80
2023-05-13T20:43:20.115Z,4.63
2023-05-13T20:48:23.706Z,4.43
2023-05-13T20:53:27.288Z,4.20
2023-05-13T20:58:32.368Z,3.63
2023-05-13T21:03:36.047Z,3.75
2023-05-13T21:08:40.258Z,3.58
2023-05-13T21:13:45.336Z,3.58
2023-05-13T21:18:49.058Z,4.95
2023-05-13T21:23:52.734Z,4.47
2023-05-13T21:28:58.820Z,4.13
2023-05-13T21:34:02.389Z,5.18
2023-05-13T21:39:06.219Z,4.40
2023-05-13T21:44:11.428Z,4.60
2023-05-13T21:49:15.199Z,4.80
2023-05-13T21:54:20.248Z,4.70
2023-05-13T21:59:25.195Z,5.50
2023-05-13T22:04:28.796Z,5.07
2023-05-13T22:09:32.743Z,4.97
2023-05-13T22:14:37.782Z,4.88
2023-05-13T22:19:41.706Z,5.63
2023-05-13T22:24:45.440Z,5.00
2023-05-13T22:29:50.631Z,5.15
2023-05-13T22:34:54.188Z,4.82
2023-05-13T22:39:57.846Z,5.43
2023-05-13T22:45:02.902Z,5.07
2023-05-13T22:50:07.566Z,4.85
2023-05-13T22:55:11.644Z,5.10
2023-05-13T23:00:17.545Z,5.07
2023-05-13T23:05:21.332Z,5.00
2023-05-13T23:10:25.016Z,3.88
2023-05-13T23:15:30.026Z,4.47
2023-05-13T23:20:33.546Z,4.40
2023-05-13T23:25:37.147Z,4.53
2023-05-13T23:30:42.827Z,4.78
2023-05-13T23:35:46.377Z,4.43
2023-05-13T23:40:50.194Z,4.45
2023-05-13T23:45:55.489Z,4.65
2023-05-13T23:50:59.186Z,5.00
2023-05-13T23:56:02.856Z,5.63
